sensor_id;sensor_type;location;lat;lon;timestamp;P1;P2;P0
72854;PMS7003;60991;51.278;22.550;2022-11-20T00:00:06;57.25;45.25;28.00
72854;PMS7003;60991;51.278;22.550;2022-11-20T00:01:37;46.00;30.50;16.00
72854;PMS7003;60991;51.278;22.550;2022-11-20T00:03:10;53.33;45.33;28.67
72854;PMS7003;60991;51.278;22.550;2022-11-20T00:04:40;59.50;47.00;25.50
72854;PMS7003;60991;51.278;22.550;2022-11-20T00:06:12;57.67;40.33;16.00
72854;PMS7003;60991;51.278;22.550;2022-11-20T00:07:46;55.00;47.75;30.00
72854;PMS7003;60991;51.278;22.550;2022-11-20T00:09:16;58.50;48.00;29.00
72854;PMS7003;60991;51.278;22.550;2022-11-20T00:10:47;62.33;45.00;33.00
72854;PMS7003;60991;51.278;22.550;2022-11-20T00:12:17;67.00;51.25;32.00
72854;PMS7003;60991;51.278;22.550;2022-11-20T00:13:48;67.00;55.00;33.00
72854;PMS7003;60991;51.278;22.550;2022-11-20T00:15:23;66.00;47.00;29.50
72854;PMS7003;60991;51.278;22.550;2022-11-20T00:16:53;70.25;53.75;33.00
72854;PMS7003;60991;51.278;22.550;2022-11-20T00:18:24;60.67;48.33;31.00
72854;PMS7003;60991;51.278;22.550;2022-11-20T00:19:55;71.00;54.50;34.00
72854;PMS7003;60991;51.278;22.550;2022-11-20T00:21:26;62.33;54.33;31.33
72854;PMS7003;60991;51.278;22.550;2022-11-20T00:22:58;71.50;54.00;30.25
72854;PMS7003;60991;51.278;22.550;2022-11-20T00:24:28;66.75;54.75;33.50
72854;PMS7003;60991;51.278;22.550;2022-11-20T00:26:05;69.25;50.50;33.75
72854;PMS7003;60991;51.278;22.550;2022-11-20T00:27:37;78.00;57.75;34.00
72854;PMS7003;60991;51.278;22.550;2022-11-20T00:29:13;72.25;52.00;33.50
72854;PMS7003;60991;51.278;22.550;2022-11-20T00:30:43;67.00;52.67;34.00
72854;PMS7003;60991;51.278;22.550;2022-11-20T00:32:13;76.50;57.75;34.00
72854;PMS7003;60991;51.278;22.550;2022-11-20T00:33:44;75.33;54.33;34.00
72854;PMS7003;60991;51.278;22.550;2022-11-20T00:35:15;66.00;48.50;30.00
72854;PMS7003;60991;51.278;22.550;2022-11-20T00:36:45;70.50;51.75;32.50
72854;PMS7003;60991;51.278;22.550;2022-11-20T00:38:15;70.33;52.00;33.00
72854;PMS7003;60991;51.278;22.550;2022-11-20T00:39:46;68.33;51.00;33.33
72854;PMS7003;60991;51.278;22.550;2022-11-20T00:41:16;59.33;49.33;34.00
72854;PMS7003;60991;51.278;22.550;2022-11-20T00:42:46;74.00;56.75;33.75
72854;PMS7003;60991;51.278;22.550;2022-11-20T00:44:16;68.00;55.00;32.33
72854;PMS7003;60991;51.278;22.550;2022-11-20T00:45:47;64.75;47.50;30.25
72854;PMS7003;60991;51.278;22.550;2022-11-20T00:47:17;53.00;43.33;29.33
72854;PMS7003;60991;51.278;22.550;2022-11-20T00:48:59;70.75;51.75;30.75
72854;PMS7003;60991;51.278;22.550;2022-11-20T00:50:32;67.50;56.75;31.00
72854;PMS7003;60991;51.278;22.550;2022-11-20T00:52:02;69.25;51.50;32.50
72854;PMS7003;60991;51.278;22.550;2022-11-20T00:53:32;66.25;51.75;31.00
72854;PMS7003;60991;51.278;22.550;2022-11-20T00:55:03;77.50;56.25;31.00
72854;PMS7003;60991;51.278;22.550;2022-11-20T00:56:36;63.75;48.00;30.50
72854;PMS7003;60991;51.278;22.550;2022-11-20T00:58:06;64.50;50.25;30.00
72854;PMS7003;60991;51.278;22.550;2022-11-20T00:59:36;70.00;51.75;31.50
72854;PMS7003;60991;51.278;22.550;2022-11-20T01:01:17;56.67;47.67;30.33
72854;PMS7003;60991;51.278;22.550;2022-11-20T01:02:49;68.25;51.75;31.50
72854;PMS7003;60991;51.278;22.550;2022-11-20T01:04:19;62.75;46.75;29.00
72854;PMS7003;60991;51.278;22.550;2022-11-20T01:05:49;59.00;46.00;28.00
72854;PMS7003;60991;51.278;22.550;2022-11-20T01:07:19;56.67;46.67;30.00
72854;PMS7003;60991;51.278;22.550;2022-11-20T01:08:50;68.33;49.00;30.00
72854;PMS7003;60991;51.278;22.550;2022-11-20T01:10:22;63.50;49.25;30.00
72854;PMS7003;60991;51.278;22.550;2022-11-20T01:11:52;49.67;44.33;27.33
72854;PMS7003;60991;51.278;22.550;2022-11-20T01:13:23;68.33;51.33;32.33
72854;PMS7003;60991;51.278;22.550;2022-11-20T01:14:53;48.00;40.67;28.00
72854;PMS7003;60991;51.278;22.550;2022-11-20T01:16:27;65.33;48.67;30.00
72854;PMS7003;60991;51.278;22.550;2022-11-20T01:17:59;59.00;48.75;28.00
72854;PMS7003;60991;51.278;22.550;2022-11-20T01:19:29;50.67;43.67;28.00
72854;PMS7003;60991;51.278;22.550;2022-11-20T01:21:01;61.50;45.00;29.50
72854;PMS7003;60991;51.278;22.550;2022-11-20T01:22:32;50.00;45.00;28.00
72854;PMS7003;60991;51.278;22.550;2022-11-20T01:24:03;59.67;46.67;28.00
72854;PMS7003;60991;51.278;22.550;2022-11-20T01:25:35;48.50;44.00;25.00
72854;PMS7003;60991;51.278;22.550;2022-11-20T01:27:05;41.33;33.67;23.67
72854;PMS7003;60991;51.278;22.550;2022-11-20T01:28:36;51.50;43.50;24.75
72854;PMS7003;60991;51.278;22.550;2022-11-20T01:30:07;38.75;31.50;21.25
72854;PMS7003;60991;51.278;22.550;2022-11-20T01:31:37;37.25;32.50;21.00
72854;PMS7003;60991;51.278;22.550;2022-11-20T01:33:08;45.67;36.67;21.00
72854;PMS7003;60991;51.278;22.550;2022-11-20T01:34:38;36.67;30.33;22.00
72854;PMS7003;60991;51.278;22.550;2022-11-20T01:36:11;41.00;36.00;24.75
72854;PMS7003;60991;51.278;22.550;2022-11-20T01:37:42;33.75;28.00;19.00
72854;PMS7003;60991;51.278;22.550;2022-11-20T01:39:14;40.25;31.50;20.50
72854;PMS7003;60991;51.278;22.550;2022-11-20T01:40:53;30.50;25.50;19.00
72854;PMS7003;60991;51.278;22.550;2022-11-20T01:42:25;37.00;30.75;20.50
72854;PMS7003;60991;51.278;22.550;2022-11-20T01:43:55;41.75;31.75;17.00
72854;PMS7003;60991;51.278;22.550;2022-11-20T01:47:25;47.75;35.75;24.50
72854;PMS7003;60991;51.278;22.550;2022-11-20T01:49:16;48.75;39.25;23.50
72854;PMS7003;60991;51.278;22.550;2022-11-20T01:50:51;41.25;31.50;21.00
72854;PMS7003;60991;51.278;22.550;2022-11-20T01:52:24;41.00;27.75;21.00
72854;PMS7003;60991;51.278;22.550;2022-11-20T01:54:17;41.25;28.75;21.00
72854;PMS7003;60991;51.278;22.550;2022-11-20T01:55:52;43.00;34.00;20.00
72854;PMS7003;60991;51.278;22.550;2022-11-20T01:57:27;38.00;32.50;18.00
72854;PMS7003;60991;51.278;22.550;2022-11-20T01:58:59;30.75;27.00;18.00
72854;PMS7003;60991;51.278;22.550;2022-11-20T02:00:33;39.00;31.75;17.00
72854;PMS7003;60991;51.278;22.550;2022-11-20T02:02:03;28.00;25.67;16.00
72854;PMS7003;60991;51.278;22.550;2022-11-20T02:03:34;27.50;20.00;16.00
72854;PMS7003;60991;51.278;22.550;2022-11-20T02:06:56;25.25;17.25;11.50
72854;PMS7003;60991;51.278;22.550;2022-11-20T02:08:30;32.50;30.25;18.50
72854;PMS7003;60991;51.278;22.550;2022-11-20T02:10:02;38.50;31.50;21.00
72854;PMS7003;60991;51.278;22.550;2022-11-20T02:11:32;38.50;28.50;17.50
72854;PMS7003;60991;51.278;22.550;2022-11-20T02:13:02;29.33;29.33;19.67
72854;PMS7003;60991;51.278;22.550;2022-11-20T02:14:33;32.50;25.50;19.50
72854;PMS7003;60991;51.278;22.550;2022-11-20T02:16:03;38.33;23.67;15.67
72854;PMS7003;60991;51.278;22.550;2022-11-20T02:17:35;33.00;24.00;16.50
72854;PMS7003;60991;51.278;22.550;2022-11-20T02:19:11;38.75;29.75;19.00
72854;PMS7003;60991;51.278;22.550;2022-11-20T02:20:56;42.75;29.25;21.00
72854;PMS7003;60991;51.278;22.550;2022-11-20T02:22:48;47.50;33.25;19.00
72854;PMS7003;60991;51.278;22.550;2022-11-20T02:24:23;39.25;26.00;15.50
72854;PMS7003;60991;51.278;22.550;2022-11-20T02:25:54;48.75;32.50;18.75
72854;PMS7003;60991;51.278;22.550;2022-11-20T02:27:26;44.75;35.25;21.25
72854;PMS7003;60991;51.278;22.550;2022-11-20T02:28:58;33.75;31.75;20.50
72854;PMS7003;60991;51.278;22.550;2022-11-20T02:30:31;38.25;28.50;21.25
72854;PMS7003;60991;51.278;22.550;2022-11-20T02:32:02;53.33;34.67;21.00
72854;PMS7003;60991;51.278;22.550;2022-11-20T02:33:32;32.50;24.75;15.00
72854;PMS7003;60991;51.278;22.550;2022-11-20T02:36:49;56.50;39.25;24.00
72854;PMS7003;60991;51.278;22.550;2022-11-20T02:38:21;41.00;30.75;18.75
72854;PMS7003;60991;51.278;22.550;2022-11-20T02:39:52;48.50;38.25;23.75
72854;PMS7003;60991;51.278;22.550;2022-11-20T02:41:30;42.00;29.75;22.00
72854;PMS7003;60991;51.278;22.550;2022-11-20T02:43:01;37.00;30.50;20.00
72854;PMS7003;60991;51.278;22.550;2022-11-20T02:44:31;41.00;29.00;20.33
72854;PMS7003;60991;51.278;22.550;2022-11-20T02:46:01;46.33;36.67;22.00
72854;PMS7003;60991;51.278;22.550;2022-11-20T02:47:32;40.67;30.00;18.00
72854;PMS7003;60991;51.278;22.550;2022-11-20T02:49:02;36.25;31.00;17.00
72854;PMS7003;60991;51.278;22.550;2022-11-20T02:50:35;36.50;30.25;20.00
72854;PMS7003;60991;51.278;22.550;2022-11-20T02:52:07;33.75;32.25;20.00
72854;PMS7003;60991;51.278;22.550;2022-11-20T02:53:37;33.00;28.33;16.00
72854;PMS7003;60991;51.278;22.550;2022-11-20T02:55:07;34.67;28.00;18.00
72854;PMS7003;60991;51.278;22.550;2022-11-20T02:56:38;39.50;31.50;22.50
72854;PMS7003;60991;51.278;22.550;2022-11-20T02:58:09;37.25;36.25;22.50
72854;PMS7003;60991;51.278;22.550;2022-11-20T02:59:39;30.50;28.00;17.50
72854;PMS7003;60991;51.278;22.550;2022-11-20T03:01:09;41.33;34.00;19.00
72854;PMS7003;60991;51.278;22.550;2022-11-20T03:02:40;40.00;31.67;18.33
72854;PMS7003;60991;51.278;22.550;2022-11-20T03:04:10;42.50;29.75;20.75
72854;PMS7003;60991;51.278;22.550;2022-11-20T03:05:40;46.75;33.50;21.50
72854;PMS7003;60991;51.278;22.550;2022-11-20T03:07:10;49.33;28.67;21.33
72854;PMS7003;60991;51.278;22.550;2022-11-20T03:08:41;35.00;30.33;18.00
72854;PMS7003;60991;51.278;22.550;2022-11-20T03:10:12;34.75;25.50;15.50
72854;PMS7003;60991;51.278;22.550;2022-11-20T03:11:42;41.67;31.67;17.33
72854;PMS7003;60991;51.278;22.550;2022-11-20T03:13:12;42.00;29.00;17.50
72854;PMS7003;60991;51.278;22.550;2022-11-20T03:14:45;53.50;39.25;23.50
72854;PMS7003;60991;51.278;22.550;2022-11-20T03:16:16;35.75;31.75;18.50
72854;PMS7003;60991;51.278;22.550;2022-11-20T03:17:48;34.00;26.75;18.00
72854;PMS7003;60991;51.278;22.550;2022-11-20T03:19:19;39.33;30.00;21.00
72854;PMS7003;60991;51.278;22.550;2022-11-20T03:20:49;36.25;33.50;19.50
72854;PMS7003;60991;51.278;22.550;2022-11-20T03:22:19;37.00;29.33;19.00
72854;PMS7003;60991;51.278;22.550;2022-11-20T03:23:49;24.75;19.00;16.00
72854;PMS7003;60991;51.278;22.550;2022-11-20T03:25:23;50.67;39.00;21.00
72854;PMS7003;60991;51.278;22.550;2022-11-20T03:26:53;37.00;32.75;21.50
72854;PMS7003;60991;51.278;22.550;2022-11-20T03:28:23;45.33;31.67;22.00
72854;PMS7003;60991;51.278;22.550;2022-11-20T03:29:53;46.00;37.33;21.33
72854;PMS7003;60991;51.278;22.550;2022-11-20T03:31:28;38.33;32.00;21.67
72854;PMS7003;60991;51.278;22.550;2022-11-20T03:33:03;41.25;31.00;19.00
72854;PMS7003;60991;51.278;22.550;2022-11-20T03:34:33;32.67;30.00;18.00
72854;PMS7003;60991;51.278;22.550;2022-11-20T03:36:04;30.67;24.33;16.00
72854;PMS7003;60991;51.278;22.550;2022-11-20T03:37:36;30.75;24.00;16.00
72854;PMS7003;60991;51.278;22.550;2022-11-20T03:39:07;31.50;26.00;18.50
72854;PMS7003;60991;51.278;22.550;2022-11-20T03:40:38;34.75;27.25;15.25
72854;PMS7003;60991;51.278;22.550;2022-11-20T03:42:08;26.33;22.67;14.33
72854;PMS7003;60991;51.278;22.550;2022-11-20T03:43:39;30.75;24.75;14.00
72854;PMS7003;60991;51.278;22.550;2022-11-20T03:45:10;30.00;24.50;15.50
72854;PMS7003;60991;51.278;22.550;2022-11-20T03:46:40;27.75;24.00;16.00
72854;PMS7003;60991;51.278;22.550;2022-11-20T03:48:11;40.00;29.67;16.00
72854;PMS7003;60991;51.278;22.550;2022-11-20T03:49:41;34.33;27.67;21.00
72854;PMS7003;60991;51.278;22.550;2022-11-20T03:51:18;29.67;27.67;19.00
72854;PMS7003;60991;51.278;22.550;2022-11-20T03:52:53;38.50;28.75;19.00
72854;PMS7003;60991;51.278;22.550;2022-11-20T03:54:23;34.00;25.67;19.00
72854;PMS7003;60991;51.278;22.550;2022-11-20T03:55:53;39.00;27.00;17.33
72854;PMS7003;60991;51.278;22.550;2022-11-20T03:57:23;35.67;33.33;19.00
72854;PMS7003;60991;51.278;22.550;2022-11-20T03:58:54;29.00;28.33;17.67
72854;PMS7003;60991;51.278;22.550;2022-11-20T04:00:24;39.00;34.75;24.50
72854;PMS7003;60991;51.278;22.550;2022-11-20T04:01:54;27.33;20.67;15.33
72854;PMS7003;60991;51.278;22.550;2022-11-20T04:03:25;33.33;27.33;19.00
72854;PMS7003;60991;51.278;22.550;2022-11-20T04:04:55;44.25;33.00;18.00
72854;PMS7003;60991;51.278;22.550;2022-11-20T04:06:26;29.00;22.67;15.00
72854;PMS7003;60991;51.278;22.550;2022-11-20T04:07:58;27.50;25.00;16.00
72854;PMS7003;60991;51.278;22.550;2022-11-20T04:09:28;35.33;26.33;16.67
72854;PMS7003;60991;51.278;22.550;2022-11-20T04:11:08;27.75;23.00;16.00
72854;PMS7003;60991;51.278;22.550;2022-11-20T04:12:41;31.25;22.00;16.00
72854;PMS7003;60991;51.278;22.550;2022-11-20T04:14:12;28.67;27.33;16.67
72854;PMS7003;60991;51.278;22.550;2022-11-20T04:15:44;34.25;23.00;15.75
72854;PMS7003;60991;51.278;22.550;2022-11-20T04:17:14;28.00;19.75;12.50
72854;PMS7003;60991;51.278;22.550;2022-11-20T04:18:44;22.33;19.00;13.00
72854;PMS7003;60991;51.278;22.550;2022-11-20T04:20:15;28.50;18.25;12.50
72854;PMS7003;60991;51.278;22.550;2022-11-20T04:21:45;29.25;23.25;13.50
72854;PMS7003;60991;51.278;22.550;2022-11-20T04:23:15;26.25;22.00;14.75
72854;PMS7003;60991;51.278;22.550;2022-11-20T04:24:46;30.67;21.67;15.33
72854;PMS7003;60991;51.278;22.550;2022-11-20T04:26:16;29.33;24.33;15.67
72854;PMS7003;60991;51.278;22.550;2022-11-20T04:27:49;25.50;22.50;13.25
72854;PMS7003;60991;51.278;22.550;2022-11-20T04:29:20;28.33;24.67;13.00
72854;PMS7003;60991;51.278;22.550;2022-11-20T04:30:50;23.25;21.50;13.00
72854;PMS7003;60991;51.278;22.550;2022-11-20T04:32:20;25.67;18.00;12.67
72854;PMS7003;60991;51.278;22.550;2022-11-20T04:33:50;27.33;21.00;14.33
72854;PMS7003;60991;51.278;22.550;2022-11-20T04:35:24;19.25;15.00;13.25
72854;PMS7003;60991;51.278;22.550;2022-11-20T04:36:54;24.00;24.00;15.75
72854;PMS7003;60991;51.278;22.550;2022-11-20T04:38:25;30.50;25.00;15.00
72854;PMS7003;60991;51.278;22.550;2022-11-20T04:39:55;18.00;17.25;11.75
72854;PMS7003;60991;51.278;22.550;2022-11-20T04:41:26;32.00;30.00;18.33
72854;PMS7003;60991;51.278;22.550;2022-11-20T04:42:58;38.00;31.75;21.00
72854;PMS7003;60991;51.278;22.550;2022-11-20T04:44:29;32.25;27.25;18.50
72854;PMS7003;60991;51.278;22.550;2022-11-20T04:45:59;37.67;31.67;18.33
72854;PMS7003;60991;51.278;22.550;2022-11-20T04:47:30;36.00;34.25;21.25
72854;PMS7003;60991;51.278;22.550;2022-11-20T04:49:00;38.33;32.00;20.33
72854;PMS7003;60991;51.278;22.550;2022-11-20T04:50:31;36.75;34.00;19.00
72854;PMS7003;60991;51.278;22.550;2022-11-20T04:52:01;37.67;30.00;18.67
72854;PMS7003;60991;51.278;22.550;2022-11-20T04:53:31;26.25;18.50;12.00
72854;PMS7003;60991;51.278;22.550;2022-11-20T04:55:02;26.25;18.75;13.00
72854;PMS7003;60991;51.278;22.550;2022-11-20T04:56:32;28.50;23.00;18.50
72854;PMS7003;60991;51.278;22.550;2022-11-20T04:58:03;35.75;25.00;18.00
72854;PMS7003;60991;51.278;22.550;2022-11-20T04:59:33;27.25;25.00;17.00
72854;PMS7003;60991;51.278;22.550;2022-11-20T05:01:07;28.67;25.00;18.00
72854;PMS7003;60991;51.278;22.550;2022-11-20T05:02:40;46.75;26.50;18.00
72854;PMS7003;60991;51.278;22.550;2022-11-20T05:04:10;33.00;25.67;18.67
72854;PMS7003;60991;51.278;22.550;2022-11-20T05:05:40;33.33;24.67;16.00
72854;PMS7003;60991;51.278;22.550;2022-11-20T05:07:11;36.67;23.33;17.33
72854;PMS7003;60991;51.278;22.550;2022-11-20T05:08:41;30.25;26.75;10.75
72854;PMS7003;60991;51.278;22.550;2022-11-20T05:10:12;32.25;28.50;17.00
72854;PMS7003;60991;51.278;22.550;2022-11-20T05:11:42;38.00;27.25;18.00
72854;PMS7003;60991;51.278;22.550;2022-11-20T05:13:12;33.33;27.67;18.00
72854;PMS7003;60991;51.278;22.550;2022-11-20T05:14:42;32.33;26.33;15.33
72854;PMS7003;60991;51.278;22.550;2022-11-20T05:16:13;33.67;27.00;19.00
72854;PMS7003;60991;51.278;22.550;2022-11-20T05:17:48;33.00;18.25;12.25
72854;PMS7003;60991;51.278;22.550;2022-11-20T05:19:19;41.50;30.25;15.25
72854;PMS7003;60991;51.278;22.550;2022-11-20T05:20:54;34.50;24.75;16.50
72854;PMS7003;60991;51.278;22.550;2022-11-20T05:22:25;39.25;26.75;18.25
72854;PMS7003;60991;51.278;22.550;2022-11-20T05:23:55;33.50;30.50;18.25
72854;PMS7003;60991;51.278;22.550;2022-11-20T05:25:25;42.33;29.33;18.33
72854;PMS7003;60991;51.278;22.550;2022-11-20T05:26:55;21.00;15.00;12.00
72854;PMS7003;60991;51.278;22.550;2022-11-20T05:28:26;26.33;24.33;16.67
72854;PMS7003;60991;51.278;22.550;2022-11-20T05:29:58;31.75;23.00;15.25
72854;PMS7003;60991;51.278;22.550;2022-11-20T05:31:28;30.67;24.33;15.00
72854;PMS7003;60991;51.278;22.550;2022-11-20T05:32:58;36.00;30.00;19.00
72854;PMS7003;60991;51.278;22.550;2022-11-20T05:34:28;28.33;24.33;18.00
72854;PMS7003;60991;51.278;22.550;2022-11-20T05:35:59;34.33;23.33;16.00
72854;PMS7003;60991;51.278;22.550;2022-11-20T05:37:29;28.75;24.00;13.00
72854;PMS7003;60991;51.278;22.550;2022-11-20T05:38:59;22.67;21.67;13.00
72854;PMS7003;60991;51.278;22.550;2022-11-20T05:40:29;32.67;24.67;16.67
72854;PMS7003;60991;51.278;22.550;2022-11-20T05:42:00;29.33;21.67;16.00
72854;PMS7003;60991;51.278;22.550;2022-11-20T05:43:36;34.25;25.00;17.50
72854;PMS7003;60991;51.278;22.550;2022-11-20T05:45:08;30.75;27.00;13.50
72854;PMS7003;60991;51.278;22.550;2022-11-20T05:46:38;33.75;28.75;18.00
72854;PMS7003;60991;51.278;22.550;2022-11-20T05:48:09;26.67;23.00;15.33
72854;PMS7003;60991;51.278;22.550;2022-11-20T05:49:39;29.33;21.00;15.00
72854;PMS7003;60991;51.278;22.550;2022-11-20T05:51:10;29.33;23.67;16.33
72854;PMS7003;60991;51.278;22.550;2022-11-20T05:52:42;28.00;26.25;17.00
72854;PMS7003;60991;51.278;22.550;2022-11-20T05:54:12;34.67;28.00;19.00
72854;PMS7003;60991;51.278;22.550;2022-11-20T05:55:42;33.67;24.67;17.33
72854;PMS7003;60991;51.278;22.550;2022-11-20T05:57:12;32.33;27.67;16.67
72854;PMS7003;60991;51.278;22.550;2022-11-20T05:58:43;38.00;25.50;15.00
72854;PMS7003;60991;51.278;22.550;2022-11-20T06:00:13;29.67;25.67;19.67
72854;PMS7003;60991;51.278;22.550;2022-11-20T06:01:44;27.75;25.00;18.25
72854;PMS7003;60991;51.278;22.550;2022-11-20T06:03:14;36.50;32.50;18.75
72854;PMS7003;60991;51.278;22.550;2022-11-20T06:04:44;41.00;29.33;19.33
72854;PMS7003;60991;51.278;22.550;2022-11-20T06:06:15;29.33;29.33;22.00
72854;PMS7003;60991;51.278;22.550;2022-11-20T06:07:46;37.75;31.00;21.75
72854;PMS7003;60991;51.278;22.550;2022-11-20T06:09:16;36.67;30.67;21.33
72854;PMS7003;60991;51.278;22.550;2022-11-20T06:10:46;44.33;37.67;21.33
72854;PMS7003;60991;51.278;22.550;2022-11-20T06:12:16;31.67;25.00;16.67
72854;PMS7003;60991;51.278;22.550;2022-11-20T06:13:46;39.33;25.67;19.67
72854;PMS7003;60991;51.278;22.550;2022-11-20T06:15:17;55.50;29.00;21.00
72854;PMS7003;60991;51.278;22.550;2022-11-20T06:16:47;43.67;40.67;25.67
72854;PMS7003;60991;51.278;22.550;2022-11-20T06:18:17;30.33;26.00;18.33
72854;PMS7003;60991;51.278;22.550;2022-11-20T06:19:48;42.75;39.25;22.25
72854;PMS7003;60991;51.278;22.550;2022-11-20T06:21:19;52.67;39.00;25.00
72854;PMS7003;60991;51.278;22.550;2022-11-20T06:22:51;43.00;32.25;21.25
72854;PMS7003;60991;51.278;22.550;2022-11-20T06:24:21;48.00;40.00;27.00
72854;PMS7003;60991;51.278;22.550;2022-11-20T06:25:52;41.33;38.33;23.67
72854;PMS7003;60991;51.278;22.550;2022-11-20T06:27:22;45.00;34.00;22.00
72854;PMS7003;60991;51.278;22.550;2022-11-20T06:28:54;41.25;39.75;20.00
72854;PMS7003;60991;51.278;22.550;2022-11-20T06:30:25;47.50;30.00;21.25
72854;PMS7003;60991;51.278;22.550;2022-11-20T06:31:55;37.33;27.33;16.67
72854;PMS7003;60991;51.278;22.550;2022-11-20T06:33:25;42.33;36.33;21.33
72854;PMS7003;60991;51.278;22.550;2022-11-20T06:34:56;35.50;30.25;20.50
72854;PMS7003;60991;51.278;22.550;2022-11-20T06:36:26;37.00;29.33;20.33
72854;PMS7003;60991;51.278;22.550;2022-11-20T06:37:56;35.00;33.25;22.50
72854;PMS7003;60991;51.278;22.550;2022-11-20T06:39:26;47.33;36.67;18.00
72854;PMS7003;60991;51.278;22.550;2022-11-20T06:40:57;42.25;32.25;17.75
72854;PMS7003;60991;51.278;22.550;2022-11-20T06:42:29;33.00;27.00;19.50
72854;PMS7003;60991;51.278;22.550;2022-11-20T06:43:59;15.00;9.33;0.00
72854;PMS7003;60991;51.278;22.550;2022-11-20T06:45:29;41.33;28.00;19.00
72854;PMS7003;60991;51.278;22.550;2022-11-20T06:47:00;33.67;30.67;19.00
72854;PMS7003;60991;51.278;22.550;2022-11-20T06:48:30;37.00;29.33;19.00
72854;PMS7003;60991;51.278;22.550;2022-11-20T06:50:00;35.75;28.75;18.00
72854;PMS7003;60991;51.278;22.550;2022-11-20T06:51:31;30.25;26.75;18.25
72854;PMS7003;60991;51.278;22.550;2022-11-20T06:53:01;43.33;37.67;19.67
72854;PMS7003;60991;51.278;22.550;2022-11-20T06:54:32;35.75;34.50;21.50
72854;PMS7003;60991;51.278;22.550;2022-11-20T06:56:03;32.33;27.67;22.00
72854;PMS7003;60991;51.278;22.550;2022-11-20T06:57:33;29.25;26.50;18.00
72854;PMS7003;60991;51.278;22.550;2022-11-20T06:59:04;46.33;34.67;21.00
72854;PMS7003;60991;51.278;22.550;2022-11-20T07:00:35;40.00;30.75;18.50
72854;PMS7003;60991;51.278;22.550;2022-11-20T07:02:08;31.00;29.00;21.33
72854;PMS7003;60991;51.278;22.550;2022-11-20T07:03:40;36.50;27.00;19.00
72854;PMS7003;60991;51.278;22.550;2022-11-20T07:05:11;31.00;29.25;18.50
72854;PMS7003;60991;51.278;22.550;2022-11-20T07:06:41;38.33;30.33;21.00
72854;PMS7003;60991;51.278;22.550;2022-11-20T07:08:11;34.33;27.67;18.67
72854;PMS7003;60991;51.278;22.550;2022-11-20T07:09:42;33.25;25.00;16.00
72854;PMS7003;60991;51.278;22.550;2022-11-20T07:11:12;39.25;26.25;19.50
72854;PMS7003;60991;51.278;22.550;2022-11-20T07:12:48;36.50;27.25;19.25
72854;PMS7003;60991;51.278;22.550;2022-11-20T07:14:19;34.75;29.25;22.00
72854;PMS7003;60991;51.278;22.550;2022-11-20T07:15:49;39.00;30.67;19.67
72854;PMS7003;60991;51.278;22.550;2022-11-20T07:17:20;35.33;29.33;18.33
72854;PMS7003;60991;51.278;22.550;2022-11-20T07:18:50;36.50;30.75;21.25
72854;PMS7003;60991;51.278;22.550;2022-11-20T07:20:20;32.00;26.00;17.00
72854;PMS7003;60991;51.278;22.550;2022-11-20T07:21:51;36.25;25.00;18.50
72854;PMS7003;60991;51.278;22.550;2022-11-20T07:23:21;35.50;32.75;18.50
72854;PMS7003;60991;51.278;22.550;2022-11-20T07:24:51;40.50;30.75;19.00
72854;PMS7003;60991;51.278;22.550;2022-11-20T07:26:24;31.67;27.00;18.67
72854;PMS7003;60991;51.278;22.550;2022-11-20T07:27:58;31.75;27.50;18.75
72854;PMS7003;60991;51.278;22.550;2022-11-20T07:29:29;43.00;30.00;20.00
72854;PMS7003;60991;51.278;22.550;2022-11-20T07:30:59;36.33;31.67;22.00
72854;PMS7003;60991;51.278;22.550;2022-11-20T07:32:29;34.00;23.50;16.50
72854;PMS7003;60991;51.278;22.550;2022-11-20T07:34:00;40.00;33.00;21.25
72854;PMS7003;60991;51.278;22.550;2022-11-20T07:35:30;33.50;27.50;19.00
72854;PMS7003;60991;51.278;22.550;2022-11-20T07:37:00;27.50;21.25;14.25
72854;PMS7003;60991;51.278;22.550;2022-11-20T07:38:31;33.67;25.67;18.00
72854;PMS7003;60991;51.278;22.550;2022-11-20T07:40:01;24.00;24.00;15.33
72854;PMS7003;60991;51.278;22.550;2022-11-20T07:41:32;31.00;24.50;18.00
72854;PMS7003;60991;51.278;22.550;2022-11-20T07:43:02;15.75;14.00;12.50
72854;PMS7003;60991;51.278;22.550;2022-11-20T07:44:32;23.00;21.00;15.00
72854;PMS7003;60991;51.278;22.550;2022-11-20T07:46:02;31.00;24.75;18.00
72854;PMS7003;60991;51.278;22.550;2022-11-20T07:47:36;37.75;27.75;16.00
72854;PMS7003;60991;51.278;22.550;2022-11-20T07:49:06;8.75;2.00;0.00
72854;PMS7003;60991;51.278;22.550;2022-11-20T07:50:36;31.33;21.67;16.67
72854;PMS7003;60991;51.278;22.550;2022-11-20T07:52:07;26.50;22.00;16.00
72854;PMS7003;60991;51.278;22.550;2022-11-20T07:53:37;23.67;22.67;15.67
72854;PMS7003;60991;51.278;22.550;2022-11-20T07:55:08;34.33;23.67;15.00
72854;PMS7003;60991;51.278;22.550;2022-11-20T07:56:39;27.00;21.25;14.00
72854;PMS7003;60991;51.278;22.550;2022-11-20T07:58:09;38.67;28.33;19.67
72854;PMS7003;60991;51.278;22.550;2022-11-20T07:59:39;24.67;21.67;15.00
72854;PMS7003;60991;51.278;22.550;2022-11-20T08:01:10;19.67;18.00;13.00
72854;PMS7003;60991;51.278;22.550;2022-11-20T08:02:40;37.00;26.33;16.00
72854;PMS7003;60991;51.278;22.550;2022-11-20T08:04:11;29.00;24.00;16.00
72854;PMS7003;60991;51.278;22.550;2022-11-20T08:05:41;33.50;22.00;15.25
72854;PMS7003;60991;51.278;22.550;2022-11-20T08:07:11;33.33;28.33;17.33
72854;PMS7003;60991;51.278;22.550;2022-11-20T08:08:41;32.25;27.00;16.00
72854;PMS7003;60991;51.278;22.550;2022-11-20T08:10:13;26.33;24.67;18.00
72854;PMS7003;60991;51.278;22.550;2022-11-20T08:11:44;29.50;22.50;15.50
72854;PMS7003;60991;51.278;22.550;2022-11-20T08:13:15;30.67;25.00;12.33
72854;PMS7003;60991;51.278;22.550;2022-11-20T08:14:45;27.00;21.67;15.00
72854;PMS7003;60991;51.278;22.550;2022-11-20T08:16:15;32.25;22.00;15.00
72854;PMS7003;60991;51.278;22.550;2022-11-20T08:17:45;28.67;24.67;15.33
72854;PMS7003;60991;51.278;22.550;2022-11-20T08:19:16;31.50;21.75;12.25
72854;PMS7003;60991;51.278;22.550;2022-11-20T08:20:48;25.75;19.00;14.50
72854;PMS7003;60991;51.278;22.550;2022-11-20T08:22:18;21.33;17.67;13.67
72854;PMS7003;60991;51.278;22.550;2022-11-20T08:23:48;21.33;18.67;15.00
72854;PMS7003;60991;51.278;22.550;2022-11-20T08:25:18;18.67;11.33;9.00
72854;PMS7003;60991;51.278;22.550;2022-11-20T08:26:48;18.33;15.00;10.00
72854;PMS7003;60991;51.278;22.550;2022-11-20T08:28:19;26.67;23.00;14.67
72854;PMS7003;60991;51.278;22.550;2022-11-20T08:29:49;31.00;23.50;12.00